createdAt,value
2022-11-14T00:01:40.269Z,51.70
2022-11-14T00:04:08.311Z,53.57
2022-11-14T00:06:36.349Z,51.77
2022-11-14T00:09:04.561Z,52.50
2022-11-14T00:11:32.671Z,50.60
2022-11-14T00:14:00.667Z,50.80
2022-11-14T00:16:29.011Z,51.03
2022-11-14T00:18:59.516Z,50.27
2022-11-14T00:21:27.491Z,51.17
2022-11-14T00:23:55.446Z,50.33
2022-11-14T00:26:23.406Z,50.27
2022-11-14T00:28:51.478Z,51.40
2022-11-14T00:31:19.584Z,49.40
2022-11-14T00:33:47.932Z,49.73
2022-11-14T00:36:17.448Z,50.57
2022-11-14T00:38:48.736Z,50.23
2022-11-14T00:41:19.744Z,50.97
2022-11-14T00:43:48.097Z,48.43
2022-11-14T00:46:16.367Z,50.07
2022-11-14T00:48:45.763Z,49.67
2022-11-14T00:51:17.698Z,49.77
2022-11-14T00:53:45.797Z,51.50
2022-11-14T00:56:13.971Z,49.90
2022-11-14T00:58:42.029Z,50.10
2022-11-14T01:01:10.360Z,50.17
2022-11-14T01:03:38.495Z,49.47
2022-11-14T01:06:09.110Z,52.70
2022-11-14T01:08:39.748Z,49.83
2022-11-14T01:11:12.336Z,49.23
2022-11-14T01:13:40.908Z,49.60
2022-11-14T01:16:11.412Z,49.70
2022-11-14T01:18:41.461Z,49.73
2022-11-14T01:21:11.398Z,50.10
2022-11-14T01:23:41.375Z,49.23
2022-11-14T01:26:11.468Z,49.13
2022-11-14T01:28:40.231Z,49.10
2022-11-14T01:31:16.447Z,48.63
2022-11-14T01:33:45.074Z,48.80
2022-11-14T01:36:15.188Z,49.67
2022-11-14T01:38:45.010Z,48.73
2022-11-14T01:41:15.420Z,48.63
2022-11-14T01:43:43.978Z,47.50
2022-11-14T01:46:16.279Z,48.47
2022-11-14T01:48:50.016Z,49.50
2022-11-14T01:51:22.636Z,49.10
2022-11-14T01:53:57.024Z,46.70
2022-11-14T01:56:29.566Z,46.87
2022-11-14T01:59:05.049Z,47.70
2022-11-14T02:01:36.161Z,48.40
2022-11-14T02:04:15.223Z,49.33
2022-11-14T02:06:43.663Z,48.97
2022-11-14T02:09:17.428Z,49.63
2022-11-14T02:11:47.343Z,48.67
2022-11-14T02:14:16.250Z,47.30
2022-11-14T02:16:55.686Z,49.10
2022-11-14T02:19:43.661Z,48.23
2022-11-14T02:22:13.094Z,49.07
2022-11-14T02:24:41.310Z,48.50
2022-11-14T02:27:11.184Z,49.40
2022-11-14T02:29:39.211Z,47.50
2022-11-14T02:32:10.713Z,48.20
2022-11-14T02:34:39.459Z,48.33
2022-11-14T02:37:08.032Z,47.97
2022-11-14T02:39:37.540Z,47.90
2022-11-14T02:42:05.795Z,48.07
2022-11-14T02:44:33.798Z,48.37
2022-11-14T02:47:01.904Z,47.23
2022-11-14T02:49:30.042Z,49.23
2022-11-14T02:51:58.023Z,48.30
2022-11-14T02:54:26.032Z,48.20
2022-11-14T02:56:55.511Z,48.17
2022-11-14T02:59:23.594Z,46.87
2022-11-14T03:01:53.105Z,48.13
2022-11-14T03:04:21.203Z,45.10
2022-11-14T03:06:49.332Z,48.47
2022-11-14T03:09:18.228Z,47.67
2022-11-14T03:11:46.314Z,47.30
2022-11-14T03:14:15.880Z,47.53
2022-11-14T03:16:45.753Z,46.30
2022-11-14T03:19:15.670Z,46.63
2022-11-14T03:21:44.196Z,46.33
2022-11-14T03:24:12.700Z,46.20
2022-11-14T03:26:40.888Z,46.97
2022-11-14T03:29:09.231Z,47.17
2022-11-14T03:31:38.879Z,47.90
2022-11-14T03:34:07.199Z,48.00
2022-11-14T03:36:36.125Z,48.90
2022-11-14T03:39:05.447Z,46.07
2022-11-14T03:41:33.637Z,48.90
2022-11-14T03:44:01.699Z,46.60
2022-11-14T03:46:29.753Z,47.77
2022-11-14T03:48:59.278Z,48.67
2022-11-14T03:51:27.303Z,47.90
2022-11-14T03:53:55.419Z,47.83
2022-11-14T03:56:23.744Z,47.30
2022-11-14T03:58:51.907Z,47.57
2022-11-14T04:01:23.363Z,48.93
2022-11-14T04:03:51.603Z,47.40
2022-11-14T04:06:21.037Z,48.83
2022-11-14T04:08:49.052Z,48.40
2022-11-14T04:11:17.105Z,48.67
2022-11-14T04:13:45.234Z,48.60
2022-11-14T04:16:13.272Z,48.63
2022-11-14T04:18:41.303Z,48.50
2022-11-14T04:21:11.830Z,48.47
2022-11-14T04:23:41.360Z,47.77
2022-11-14T04:26:09.360Z,48.07
2022-11-14T04:28:37.374Z,49.03
2022-11-14T04:31:05.549Z,50.33
2022-11-14T04:33:33.554Z,50.07
2022-11-14T04:36:01.625Z,50.17
2022-11-14T04:38:29.954Z,50.53
2022-11-14T04:40:59.534Z,50.83
2022-11-14T04:43:27.744Z,49.90
2022-11-14T04:45:55.797Z,50.37
2022-11-14T04:48:23.962Z,50.43
2022-11-14T04:50:52.170Z,52.50
2022-11-14T04:53:20.186Z,51.27
2022-11-14T04:55:48.215Z,52.50
2022-11-14T04:58:17.853Z,52.27
2022-11-14T05:00:47.051Z,53.80
2022-11-14T05:03:16.436Z,50.77
2022-11-14T05:05:44.612Z,53.27
2022-11-14T05:08:12.667Z,52.13
2022-11-14T05:10:44.261Z,52.30
2022-11-14T05:13:13.320Z,51.30
2022-11-14T05:15:43.108Z,52.17
2022-11-14T05:18:11.438Z,52.50
2022-11-14T05:20:39.496Z,51.97
2022-11-14T05:23:07.966Z,53.87
2022-11-14T05:25:36.022Z,52.50
2022-11-14T05:28:06.529Z,52.77
2022-11-14T05:30:34.509Z,52.27
2022-11-14T05:33:05.051Z,53.27
2022-11-14T05:35:33.041Z,53.47
2022-11-14T05:38:02.577Z,52.27
2022-11-14T05:40:30.501Z,53.50
2022-11-14T05:42:58.530Z,52.30
2022-11-14T05:45:26.480Z,52.30
2022-11-14T05:47:54.888Z,53.33
2022-11-14T05:50:24.307Z,52.60
2022-11-14T05:52:52.236Z,54.53
2022-11-14T05:55:24.854Z,52.63
2022-11-14T05:57:53.214Z,52.17
2022-11-14T06:00:21.339Z,53.57
2022-11-14T06:02:49.399Z,52.10
2022-11-14T06:05:17.450Z,51.97
2022-11-14T06:07:50.068Z,52.37
2022-11-14T06:10:18.161Z,50.47
2022-11-14T06:12:46.304Z,51.60
2022-11-14T06:15:14.251Z,52.90
2022-11-14T06:17:44.026Z,48.93
2022-11-14T06:20:13.270Z,52.13
2022-11-14T06:22:41.587Z,52.50
2022-11-14T06:25:11.213Z,51.03
2022-11-14T06:27:42.189Z,50.63
2022-11-14T06:30:11.477Z,50.53
2022-11-14T06:32:39.443Z,50.23
2022-11-14T06:35:08.333Z,52.73
2022-11-14T06:37:37.490Z,52.30
2022-11-14T06:40:07.381Z,51.83
2022-11-14T06:42:36.867Z,51.23
2022-11-14T06:45:07.339Z,51.23
2022-11-14T06:47:35.534Z,51.03
2022-11-14T06:50:03.855Z,51.90
2022-11-14T06:52:32.649Z,51.70
2022-11-14T06:55:00.609Z,50.80
2022-11-14T06:57:28.622Z,51.77
2022-11-14T06:59:58.525Z,51.77
2022-11-14T07:02:26.534Z,45.50
2022-11-14T07:04:54.541Z,47.13
2022-11-14T07:07:22.510Z,47.97
2022-11-14T07:09:50.730Z,46.80
2022-11-14T07:12:18.838Z,47.50
2022-11-14T07:14:46.911Z,45.77
2022-11-14T07:17:16.310Z,46.33
2022-11-14T07:19:44.352Z,45.87
2022-11-14T07:22:12.273Z,46.23
2022-11-14T07:24:42.214Z,45.73
2022-11-14T07:27:12.143Z,46.00
2022-11-14T07:29:40.203Z,43.03
2022-11-14T07:32:08.165Z,41.37
2022-11-14T07:34:37.704Z,42.50
2022-11-14T07:37:05.827Z,41.53
2022-11-14T07:39:33.796Z,41.60
2022-11-14T07:42:01.754Z,41.13
2022-11-14T07:44:29.885Z,40.70
2022-11-14T07:46:57.745Z,42.43
2022-11-14T07:49:25.784Z,42.23
2022-11-14T07:51:55.264Z,42.17
2022-11-14T07:54:23.418Z,40.87
2022-11-14T07:56:51.289Z,42.87
2022-11-14T07:59:19.351Z,42.83
2022-11-14T08:01:47.292Z,43.67
2022-11-14T08:04:15.509Z,43.87
2022-11-14T08:06:43.636Z,43.00
2022-11-14T08:09:13.128Z,43.57
2022-11-14T08:11:50.151Z,41.90
2022-11-14T08:14:18.309Z,43.23
2022-11-14T08:16:46.362Z,42.27
2022-11-14T08:19:16.656Z,41.97
2022-11-14T08:21:45.117Z,42.00
2022-11-14T08:24:14.490Z,41.27
2022-11-14T08:26:42.399Z,42.03
2022-11-14T08:29:10.543Z,41.93
2022-11-14T08:31:38.551Z,39.50
2022-11-14T08:34:06.631Z,39.57
2022-11-14T08:36:34.654Z,40.63
2022-11-14T08:39:03.040Z,41.50
2022-11-14T08:41:32.307Z,40.80
2022-11-14T08:44:00.373Z,41.13
2022-11-14T08:46:28.388Z,41.27
2022-11-14T08:48:56.293Z,39.67
2022-11-14T08:51:24.344Z,38.57
2022-11-14T08:53:52.602Z,39.87
2022-11-14T08:56:20.600Z,39.97
2022-11-14T08:58:50.160Z,39.70
2022-11-14T09:01:18.133Z,41.30
2022-11-14T09:03:46.131Z,41.03
2022-11-14T09:06:14.144Z,41.03
2022-11-14T09:08:42.120Z,40.33
2022-11-14T09:11:10.410Z,41.50
2022-11-14T09:13:39.144Z,39.10
2022-11-14T09:16:09.463Z,39.57
2022-11-14T09:18:37.463Z,39.70
2022-11-14T09:21:07.594Z,40.67
2022-11-14T09:23:36.257Z,38.43
2022-11-14T09:26:06.032Z,40.23
2022-11-14T09:28:34.295Z,37.60
2022-11-14T09:31:03.479Z,39.10
2022-11-14T09:33:33.031Z,41.30
2022-11-14T09:36:01.898Z,36.90
2022-11-14T09:38:35.435Z,38.47
2022-11-14T09:41:21.083Z,39.50
2022-11-14T09:44:05.298Z,37.10
2022-11-14T09:46:39.574Z,35.43
2022-11-14T09:49:20.423Z,37.17
2022-11-14T09:51:55.625Z,36.27
2022-11-14T09:54:26.036Z,37.80
2022-11-14T09:56:55.716Z,37.33
2022-11-14T09:59:23.833Z,35.63
2022-11-14T10:02:03.083Z,35.80
2022-11-14T10:04:48.200Z,35.17
2022-11-14T10:07:27.801Z,35.43
2022-11-14T10:10:04.750Z,35.20
2022-11-14T10:12:42.755Z,35.47
2022-11-14T10:15:20.999Z,35.20
2022-11-14T10:18:12.926Z,35.93
2022-11-14T10:20:47.982Z,36.03
2022-11-14T10:23:39.456Z,36.60
2022-11-14T10:26:16.527Z,35.03
2022-11-14T10:28:55.806Z,36.87
2022-11-14T10:31:38.460Z,34.63
2022-11-14T10:34:12.668Z,36.27
2022-11-14T10:36:55.498Z,36.83
2022-11-14T10:39:30.317Z,34.83
2022-11-14T10:42:07.989Z,34.50
2022-11-14T10:44:39.677Z,34.43
2022-11-14T10:47:10.906Z,34.40
2022-11-14T10:49:39.655Z,33.97
2022-11-14T10:52:14.715Z,35.90
2022-11-14T10:54:47.295Z,35.77
2022-11-14T10:57:17.906Z,36.30
2022-11-14T10:59:46.026Z,34.33
2022-11-14T11:02:14.021Z,35.00
2022-11-14T11:04:43.226Z,34.92
2022-11-14T11:07:41.584Z,34.23
2022-11-14T11:10:40.538Z,33.93
2022-11-14T11:13:15.765Z,33.97
2022-11-14T11:15:44.413Z,33.05
2022-11-14T11:18:28.230Z,34.75
2022-11-14T11:21:06.497Z,36.95
2022-11-14T11:23:37.157Z,38.15
2022-11-14T11:26:09.111Z,38.63
2022-11-14T11:28:37.966Z,40.35
2022-11-14T11:31:08.238Z,40.00
2022-11-14T11:33:38.114Z,41.03
2022-11-14T11:36:13.267Z,40.45
2022-11-14T11:38:43.401Z,42.15
2022-11-14T11:42:02.276Z,42.25
2022-11-14T11:44:15.400Z,42.53
2022-11-14T11:46:49.293Z,41.97
2022-11-14T11:49:20.445Z,42.38
2022-11-14T11:51:54.166Z,41.30
2022-11-14T11:54:28.597Z,40.72
2022-11-14T11:57:02.128Z,41.45
2022-11-14T11:59:36.446Z,41.67
2022-11-14T12:02:18.197Z,39.88
2022-11-14T12:04:46.488Z,42.63
2022-11-14T12:07:19.355Z,38.05
2022-11-14T12:13:01.953Z,40.40
2022-11-14T12:15:40.285Z,40.55
2022-11-14T12:18:30.334Z,36.47
2022-11-14T12:21:13.466Z,37.58
2022-11-14T12:24:15.548Z,38.08
2022-11-14T12:27:19.011Z,38.10
2022-11-14T12:30:05.633Z,37.55
2022-11-14T12:32:36.261Z,37.22
2022-11-14T12:35:08.648Z,37.08
2022-11-14T12:37:43.910Z,35.20
2022-11-14T12:40:23.657Z,34.30
2022-11-14T12:42:57.461Z,33.33
2022-11-14T12:46:00.904Z,34.53
2022-11-14T12:48:37.341Z,33.88
2022-11-14T12:51:27.939Z,33.38
2022-11-14T12:53:56.895Z,35.58
2022-11-14T12:56:53.944Z,31.88
2022-11-14T12:59:30.395Z,35.20
2022-11-14T13:02:31.891Z,33.85
2022-11-14T13:05:17.958Z,32.58
2022-11-14T13:07:55.680Z,35.25
2022-11-14T13:10:30.979Z,34.42
2022-11-14T13:13:21.398Z,34.15
2022-11-14T13:16:10.228Z,34.28
2022-11-14T13:19:10.067Z,35.00
2022-11-14T13:21:47.524Z,33.75
2022-11-14T13:24:17.305Z,35.70
2022-11-14T13:26:50.868Z,34.63
2022-11-14T13:29:52.273Z,36.08
2022-11-14T13:33:06.366Z,33.88
2022-11-14T13:53:29.113Z,37.28
2022-11-14T13:56:06.283Z,37.90
2022-11-14T13:58:58.371Z,37.83
2022-11-14T14:01:39.809Z,37.40
2022-11-14T14:04:27.131Z,39.15
2022-11-14T14:07:06.641Z,39.00
2022-11-14T14:09:42.015Z,39.95
2022-11-14T14:12:27.875Z,38.03
2022-11-14T14:15:17.265Z,37.78
2022-11-14T14:17:56.437Z,38.58
2022-11-14T14:20:39.656Z,39.35
2022-11-14T14:23:21.625Z,38.75
2022-11-14T14:25:58.774Z,38.65
2022-11-14T14:28:40.511Z,36.65
2022-11-14T14:31:13.600Z,38.30
2022-11-14T14:33:43.653Z,39.03
2022-11-14T14:36:19.465Z,36.25
2022-11-14T14:38:48.271Z,37.92
2022-11-14T14:41:19.030Z,34.95
2022-11-14T14:43:55.824Z,34.40
2022-11-14T14:46:34.445Z,34.65
2022-11-14T14:49:06.699Z,38.65
2022-11-14T14:51:38.130Z,38.55
2022-11-14T14:54:07.869Z,39.45
2022-11-14T14:56:39.350Z,39.88
2022-11-14T14:59:23.119Z,37.63
2022-11-14T15:01:51.297Z,37.75
2022-11-14T15:04:20.946Z,39.33
2022-11-14T15:06:49.083Z,39.83
2022-11-14T15:09:20.205Z,38.47
2022-11-14T15:11:53.408Z,38.28
2022-11-14T15:14:26.246Z,40.53
2022-11-14T15:16:56.532Z,40.03
2022-11-14T15:19:29.859Z,38.22
2022-11-14T15:22:06.431Z,39.20
2022-11-14T15:24:34.725Z,41.53
2022-11-14T15:27:06.515Z,40.08
2022-11-14T15:29:36.011Z,42.08
2022-11-14T15:32:06.539Z,41.30
2022-11-14T15:34:36.012Z,44.38
2022-11-14T15:37:09.687Z,41.50
2022-11-14T15:39:38.581Z,41.40
2022-11-14T15:42:16.461Z,41.95
2022-11-14T15:44:47.705Z,41.22
2022-11-14T15:47:21.196Z,42.45
2022-11-14T15:50:03.692Z,42.42
2022-11-14T15:52:36.387Z,42.30
2022-11-14T15:55:05.659Z,42.55
2022-11-14T15:57:34.813Z,43.05
2022-11-14T16:00:07.601Z,41.83
2022-11-14T16:02:46.015Z,44.00
2022-11-14T16:05:25.411Z,44.90
2022-11-14T16:07:53.681Z,42.58
2022-11-14T16:10:23.574Z,44.30
2022-11-14T16:12:52.819Z,45.72
2022-11-14T16:15:22.860Z,46.00
2022-11-14T16:17:51.685Z,49.22
2022-11-14T16:20:22.021Z,48.03
2022-11-14T16:22:53.124Z,48.05
2022-11-14T16:25:24.437Z,49.28
2022-11-14T16:27:53.336Z,49.42
2022-11-14T16:30:25.017Z,51.10
2022-11-14T16:32:53.848Z,50.22
2022-11-14T16:35:23.644Z,51.38
2022-11-14T16:37:52.663Z,51.45
2022-11-14T16:40:23.172Z,51.95
2022-11-14T16:42:51.515Z,51.42
2022-11-14T16:45:21.090Z,55.53
2022-11-14T16:47:51.512Z,55.38
2022-11-14T16:50:20.760Z,53.05
2022-11-14T16:52:50.341Z,56.03
2022-11-14T16:55:18.475Z,55.72
2022-11-14T16:57:46.490Z,55.83
2022-11-14T17:00:15.226Z,54.70
2022-11-14T17:02:43.481Z,55.75
2022-11-14T17:05:12.960Z,56.05
2022-11-14T17:07:41.108Z,61.20
2022-11-14T17:10:09.781Z,62.35
2022-11-14T17:12:37.936Z,61.80
2022-11-14T17:15:06.780Z,62.50
2022-11-14T17:17:34.787Z,59.45
2022-11-14T17:20:02.814Z,59.95
2022-11-14T17:22:32.380Z,61.78
2022-11-14T17:25:00.305Z,60.92
2022-11-14T17:27:28.945Z,63.83
2022-11-14T17:29:57.078Z,62.33
2022-11-14T17:32:25.228Z,62.65
2022-11-14T17:34:53.456Z,63.50
2022-11-14T17:37:21.425Z,61.47
2022-11-14T17:39:50.899Z,62.17
2022-11-14T17:42:18.902Z,60.58
2022-11-14T17:44:46.864Z,60.03
2022-11-14T17:47:15.451Z,60.92
2022-11-14T17:49:43.594Z,61.23
2022-11-14T17:52:12.110Z,60.83
2022-11-14T17:54:40.084Z,60.77
2022-11-14T17:57:09.479Z,58.17
2022-11-14T17:59:38.801Z,59.23
2022-11-14T18:02:06.865Z,58.40
2022-11-14T18:04:34.922Z,58.83
2022-11-14T18:07:03.934Z,56.63
2022-11-14T18:09:32.257Z,55.57
2022-11-14T18:12:00.436Z,52.30
2022-11-14T18:14:29.857Z,52.17
2022-11-14T18:17:12.399Z,51.53
2022-11-14T18:19:41.523Z,51.77
2022-11-14T18:22:09.494Z,51.50
2022-11-14T18:24:37.598Z,51.37
2022-11-14T18:27:05.696Z,50.80
2022-11-14T18:29:37.873Z,51.00
2022-11-14T18:32:06.494Z,53.67
2022-11-14T18:34:36.967Z,53.30
2022-11-14T18:37:05.503Z,52.75
2022-11-14T18:39:33.572Z,53.67
2022-11-14T18:42:01.536Z,52.97
2022-11-14T18:44:30.094Z,54.63
2022-11-14T18:46:59.653Z,57.30
2022-11-14T18:49:30.483Z,59.10
2022-11-14T18:52:01.175Z,59.70
2022-11-14T18:54:33.474Z,58.67
2022-11-14T18:57:01.730Z,58.87
2022-11-14T18:59:29.771Z,56.73
2022-11-14T19:01:59.652Z,60.83
2022-11-14T19:04:27.838Z,58.03
2022-11-14T19:06:56.398Z,57.90
2022-11-14T19:09:24.596Z,58.50
2022-11-14T19:12:10.074Z,60.27
2022-11-14T19:14:38.351Z,58.23
2022-11-14T19:17:10.625Z,61.23
2022-11-14T19:19:38.947Z,61.27
2022-11-14T19:22:08.256Z,59.97
2022-11-14T19:24:36.437Z,61.07
2022-11-14T19:27:07.347Z,61.93
2022-11-14T19:29:36.082Z,62.37
2022-11-14T19:33:20.381Z,61.13
2022-11-14T19:36:57.754Z,60.70
2022-11-14T19:43:01.836Z,60.70
2022-11-14T19:45:29.862Z,69.13
2022-11-14T19:48:00.568Z,65.97
2022-11-14T19:50:28.606Z,71.63
2022-11-14T19:52:58.307Z,72.27
2022-11-14T19:55:26.332Z,77.03
2022-11-14T19:57:54.280Z,74.73
2022-11-14T20:00:24.889Z,74.97
2022-11-14T20:02:53.011Z,73.30
2022-11-14T20:05:20.924Z,75.70
2022-11-14T20:07:48.909Z,76.23
2022-11-14T20:10:18.433Z,70.10
2022-11-14T20:12:46.323Z,75.63
2022-11-14T20:15:14.693Z,71.30
2022-11-14T20:17:42.821Z,75.90
2022-11-14T20:20:11.546Z,81.07
2022-11-14T20:22:39.646Z,74.00
2022-11-14T20:25:08.944Z,73.77
2022-11-14T20:27:38.320Z,70.65
2022-11-14T20:30:07.398Z,74.20
2022-11-14T20:32:35.478Z,67.70
2022-11-14T20:35:06.694Z,68.00
2022-11-14T20:37:34.683Z,72.20
2022-11-14T20:40:02.714Z,65.53
2022-11-14T20:42:30.668Z,75.30
2022-11-14T20:45:00.299Z,69.37
2022-11-14T20:47:29.848Z,67.30
2022-11-14T20:49:57.797Z,69.37
2022-11-14T20:52:26.171Z,67.17
2022-11-14T20:54:57.289Z,71.05
2022-11-14T20:57:25.649Z,70.07
2022-11-14T20:59:55.891Z,63.80
2022-11-14T21:02:28.278Z,72.93
2022-11-14T21:04:57.251Z,69.25
2022-11-14T21:07:25.391Z,68.63
2022-11-14T21:10:14.077Z,71.20
2022-11-14T21:12:45.678Z,68.03
2022-11-14T21:15:19.793Z,69.80
2022-11-14T21:17:49.329Z,66.00
2022-11-14T21:20:17.911Z,69.03
2022-11-14T21:22:45.778Z,64.17
2022-11-14T21:25:16.343Z,67.70
2022-11-14T21:27:44.871Z,69.03
2022-11-14T21:30:13.380Z,66.80
2022-11-14T21:32:41.348Z,68.90
2022-11-14T21:35:10.699Z,66.77
2022-11-14T21:37:38.683Z,70.77
2022-11-14T21:40:07.632Z,68.93
2022-11-14T21:42:35.656Z,67.47
2022-11-14T21:45:08.669Z,69.77
2022-11-14T21:47:36.672Z,69.40
2022-11-14T21:50:04.969Z,65.72
2022-11-14T21:52:34.513Z,66.63
2022-11-14T21:55:03.392Z,69.90
2022-11-14T21:57:31.306Z,72.20
2022-11-14T22:00:00.448Z,67.30
2022-11-14T22:02:45.944Z,70.23
2022-11-14T22:05:13.853Z,72.83
2022-11-14T22:07:43.393Z,69.73
2022-11-14T22:10:11.463Z,71.43
2022-11-14T22:12:39.432Z,69.67
2022-11-14T22:15:08.439Z,72.10
2022-11-14T22:17:36.385Z,66.10
2022-11-14T22:20:05.185Z,68.37
2022-11-14T22:22:33.109Z,67.17
2022-11-14T22:25:02.738Z,65.67
2022-11-14T22:27:30.749Z,69.20
2022-11-14T22:29:59.172Z,68.70
2022-11-14T22:32:27.072Z,67.00
2022-11-14T22:34:54.955Z,70.32
2022-11-14T22:37:22.869Z,72.15
2022-11-14T22:39:50.782Z,69.43
2022-11-14T22:42:20.179Z,66.00
2022-11-14T22:44:48.152Z,71.15
2022-11-14T22:47:16.139Z,69.68
2022-11-14T22:49:43.992Z,73.28
2022-11-14T22:52:13.753Z,75.55
2022-11-14T22:54:42.248Z,73.83
2022-11-14T22:57:13.136Z,77.60
2022-11-14T22:59:42.521Z,71.80
2022-11-14T23:02:10.411Z,74.50
2022-11-14T23:04:38.338Z,72.67
2022-11-14T23:07:06.880Z,72.38
2022-11-14T23:09:35.071Z,71.05
2022-11-14T23:12:06.519Z,72.50
2022-11-14T23:14:34.617Z,66.30
2022-11-14T23:17:06.002Z,73.05
2022-11-14T23:19:34.147Z,74.55
2022-11-14T23:22:04.377Z,78.47
2022-11-14T23:24:32.358Z,89.03
2022-11-14T23:27:00.310Z,75.88
2022-11-14T23:29:28.512Z,84.67
2022-11-14T23:31:56.398Z,84.78
2022-11-14T23:34:27.252Z,78.45
2022-11-14T23:36:55.120Z,82.20
2022-11-14T23:39:23.069Z,87.32
2022-11-14T23:41:50.996Z,82.22
2022-11-14T23:44:19.100Z,93.13
2022-11-14T23:46:47.071Z,90.60
2022-11-14T23:49:15.012Z,117.20
2022-11-14T23:51:44.343Z,87.10
2022-11-14T23:54:12.245Z,84.82
2022-11-14T23:56:40.199Z,108.20
2022-11-14T23:59:08.193Z,93.68
